createdAt,value
2022-08-30T00:01:31.801Z,18.08
2022-08-30T00:04:02.289Z,18.11
2022-08-30T00:06:31.226Z,18.04
2022-08-30T00:08:59.919Z,18.08
2022-08-30T00:11:29.085Z,18.16
2022-08-30T00:13:58.022Z,17.89
2022-08-30T00:16:26.574Z,17.88
2022-08-30T00:18:54.305Z,17.92
2022-08-30T00:21:23.692Z,17.92
2022-08-30T00:23:51.550Z,18.02
2022-08-30T00:26:19.544Z,17.96
2022-08-30T00:28:47.310Z,17.80
2022-08-30T00:31:15.384Z,17.88
2022-08-30T00:33:43.988Z,17.83
2022-08-30T00:36:11.674Z,17.82
2022-08-30T00:38:40.857Z,17.73
2022-08-30T00:41:08.728Z,17.76
2022-08-30T00:43:37.190Z,17.72
2022-08-30T00:46:07.787Z,17.64
2022-08-30T00:48:37.722Z,17.68
2022-08-30T00:51:11.334Z,17.66
2022-08-30T00:53:44.218Z,17.68
2022-08-30T00:56:12.446Z,17.76
2022-08-30T00:58:44.172Z,17.66
2022-08-30T01:01:12.025Z,17.67
2022-08-30T01:03:40.277Z,17.64
2022-08-30T01:06:08.731Z,17.62
2022-08-30T01:08:36.448Z,17.66
2022-08-30T01:11:05.688Z,17.56
2022-08-30T01:13:35.281Z,17.60
2022-08-30T01:16:03.941Z,17.53
2022-08-30T01:18:32.415Z,17.38
2022-08-30T01:21:07.266Z,17.50
2022-08-30T01:23:38.406Z,17.41
2022-08-30T01:26:07.183Z,17.44
2022-08-30T01:28:35.754Z,17.32
2022-08-30T01:31:03.628Z,17.37
2022-08-30T01:33:31.407Z,17.44
2022-08-30T01:36:01.457Z,17.40
2022-08-30T01:38:30.624Z,17.27
2022-08-30T01:41:01.109Z,17.24
2022-08-30T01:43:29.021Z,17.27
2022-08-30T01:45:56.784Z,17.27
2022-08-30T01:48:26.522Z,17.29
2022-08-30T01:50:58.959Z,17.21
2022-08-30T01:53:26.975Z,17.20
2022-08-30T01:55:54.660Z,17.11
2022-08-30T01:58:24.228Z,17.10
2022-08-30T02:00:52.025Z,17.06
2022-08-30T02:03:20.063Z,17.06
2022-08-30T02:05:48.335Z,16.95
2022-08-30T02:08:16.090Z,17.05
2022-08-30T02:10:44.626Z,16.99
2022-08-30T02:13:12.328Z,16.99
2022-08-30T02:15:41.498Z,17.01
2022-08-30T02:18:10.641Z,16.94
2022-08-30T02:20:39.412Z,16.90
2022-08-30T02:23:07.202Z,16.92
2022-08-30T02:25:34.978Z,16.99
2022-08-30T02:28:02.665Z,16.98
2022-08-30T02:30:30.387Z,17.03
2022-08-30T02:32:59.535Z,17.05
2022-08-30T02:35:27.974Z,17.08
2022-08-30T02:37:55.784Z,16.97
2022-08-30T02:40:23.667Z,17.00
2022-08-30T02:42:51.562Z,16.95
2022-08-30T02:45:19.586Z,16.95
2022-08-30T02:47:47.379Z,16.95
2022-08-30T02:50:16.884Z,17.01
2022-08-30T02:52:48.159Z,16.99
2022-08-30T02:55:16.407Z,16.91
2022-08-30T02:57:44.674Z,16.90
2022-08-30T03:00:16.071Z,16.95
2022-08-30T03:02:43.924Z,16.84
2022-08-30T03:05:13.934Z,16.89
2022-08-30T03:07:43.482Z,16.90
2022-08-30T03:10:11.922Z,16.77
2022-08-30T03:12:42.509Z,16.72
2022-08-30T03:15:13.376Z,16.70
2022-08-30T03:17:41.389Z,16.77
2022-08-30T03:20:10.642Z,16.70
2022-08-30T03:22:38.611Z,16.66
2022-08-30T03:25:09.136Z,16.61
2022-08-30T03:27:36.858Z,16.59
2022-08-30T03:30:05.909Z,16.55
2022-08-30T03:32:33.694Z,16.51
2022-08-30T03:35:01.438Z,16.48
2022-08-30T03:37:29.110Z,16.56
2022-08-30T03:39:57.139Z,16.56
2022-08-30T03:42:26.182Z,16.59
2022-08-30T03:44:55.535Z,16.63
2022-08-30T03:47:23.261Z,16.70
2022-08-30T03:49:50.991Z,16.67
2022-08-30T03:52:18.626Z,16.71
2022-08-30T03:54:46.416Z,16.71
2022-08-30T03:57:20.086Z,16.63
2022-08-30T03:59:53.414Z,16.59
2022-08-30T04:02:21.420Z,16.56
2022-08-30T04:04:49.165Z,16.44
2022-08-30T04:07:16.912Z,16.41
2022-08-30T04:09:44.551Z,16.38
2022-08-30T04:12:12.433Z,16.41
2022-08-30T04:14:42.351Z,16.47
2022-08-30T04:17:11.328Z,16.51
2022-08-30T04:19:38.952Z,16.40
2022-08-30T04:22:06.908Z,16.40
2022-08-30T04:24:34.745Z,16.43
2022-08-30T04:27:02.411Z,16.48
2022-08-30T04:29:30.078Z,16.48
2022-08-30T04:31:57.800Z,16.50
2022-08-30T04:34:26.835Z,16.51
2022-08-30T04:36:54.526Z,16.46
2022-08-30T04:39:22.192Z,16.47
2022-08-30T04:41:49.945Z,16.46
2022-08-30T04:44:19.532Z,16.40
2022-08-30T04:46:47.496Z,16.49
2022-08-30T04:49:15.263Z,16.40
2022-08-30T04:51:44.347Z,16.29
2022-08-30T04:54:12.246Z,16.38
2022-08-30T04:56:40.212Z,16.46
2022-08-30T04:59:07.885Z,16.40
2022-08-30T05:01:44.889Z,16.38
2022-08-30T05:04:14.096Z,16.36
2022-08-30T05:06:41.814Z,16.42
2022-08-30T05:09:11.035Z,16.38
2022-08-30T05:11:39.211Z,16.48
2022-08-30T05:14:06.959Z,16.67
2022-08-30T05:16:34.685Z,16.54
2022-08-30T05:19:02.591Z,16.54
2022-08-30T05:21:30.526Z,16.58
2022-08-30T05:23:59.826Z,16.64
2022-08-30T05:26:30.789Z,16.63
2022-08-30T05:28:58.666Z,16.65
2022-08-30T05:31:28.550Z,16.77
2022-08-30T05:33:56.745Z,16.72
2022-08-30T05:36:26.246Z,16.82
2022-08-30T05:38:54.810Z,16.90
2022-08-30T05:41:26.314Z,16.85
2022-08-30T05:43:56.631Z,16.95
2022-08-30T05:46:24.309Z,16.97
2022-08-30T05:48:52.559Z,16.94
2022-08-30T05:51:22.632Z,16.93
2022-08-30T05:53:51.609Z,16.97
2022-08-30T05:56:21.436Z,17.08
2022-08-30T05:58:52.963Z,17.10
2022-08-30T06:01:24.671Z,17.20
2022-08-30T06:03:52.546Z,17.25
2022-08-30T06:06:20.374Z,17.29
2022-08-30T06:08:49.062Z,17.38
2022-08-30T06:11:20.199Z,17.39
2022-08-30T06:13:48.119Z,17.44
2022-08-30T06:16:17.799Z,17.49
2022-08-30T06:18:47.519Z,17.50
2022-08-30T06:21:17.567Z,17.69
2022-08-30T06:23:45.577Z,17.60
2022-08-30T06:26:13.869Z,17.64
2022-08-30T06:28:41.626Z,17.65
2022-08-30T06:31:11.180Z,17.73
2022-08-30T06:33:39.461Z,17.84
2022-08-30T06:36:10.529Z,17.97
2022-08-30T06:38:39.075Z,18.02
2022-08-30T06:41:07.535Z,18.14
2022-08-30T06:43:35.425Z,18.20
2022-08-30T06:46:03.413Z,18.26
2022-08-30T06:48:31.125Z,18.21
2022-08-30T06:50:59.230Z,18.38
2022-08-30T06:53:30.199Z,18.34
2022-08-30T06:56:01.264Z,18.46
2022-08-30T06:58:29.678Z,18.43
2022-08-30T07:00:57.400Z,18.40
2022-08-30T07:03:27.276Z,18.60
2022-08-30T07:05:55.040Z,18.55
2022-08-30T07:08:24.143Z,18.61
2022-08-30T07:10:54.767Z,18.73
2022-08-30T07:13:23.951Z,18.94
2022-08-30T07:15:52.579Z,19.14
2022-08-30T07:18:38.668Z,19.24
2022-08-30T07:21:11.136Z,19.35
2022-08-30T07:23:39.017Z,19.29
2022-08-30T07:26:10.308Z,19.22
2022-08-30T07:28:38.765Z,19.34
2022-08-30T07:33:36.567Z,19.78
2022-08-30T07:36:05.903Z,19.89
2022-08-30T07:38:33.878Z,20.07
2022-08-30T07:41:01.836Z,20.13
2022-08-30T07:43:31.382Z,20.15
2022-08-30T07:46:02.085Z,20.34
2022-08-30T07:48:30.013Z,20.18
2022-08-30T07:51:00.783Z,20.32
2022-08-30T07:53:30.785Z,20.37
2022-08-30T07:55:58.436Z,20.35
2022-08-30T07:58:26.020Z,20.50
2022-08-30T08:00:55.060Z,20.68
2022-08-30T08:03:22.680Z,20.60
2022-08-30T08:05:50.376Z,20.78
2022-08-30T08:08:18.207Z,20.77
2022-08-30T08:10:46.410Z,20.88
2022-08-30T08:13:14.026Z,20.77
2022-08-30T08:15:41.782Z,20.77
2022-08-30T08:18:10.769Z,20.77
2022-08-30T08:20:38.832Z,21.02
2022-08-30T08:23:06.560Z,20.70
2022-08-30T08:25:35.372Z,20.85
2022-08-30T08:28:03.029Z,21.00
2022-08-30T08:30:35.803Z,21.01
2022-08-30T08:33:04.470Z,21.01
2022-08-30T08:35:33.990Z,21.41
2022-08-30T08:38:01.764Z,21.59
2022-08-30T08:40:31.893Z,21.48
2022-08-30T08:43:03.031Z,21.69
2022-08-30T08:45:39.943Z,21.85
2022-08-30T08:48:11.426Z,22.02
2022-08-30T08:51:02.728Z,22.08
2022-08-30T08:53:45.288Z,22.14
2022-08-30T08:56:17.337Z,22.38
2022-08-30T08:58:47.004Z,22.48
2022-08-30T09:01:18.043Z,22.55
2022-08-30T09:03:46.907Z,22.77
2022-08-30T09:06:26.074Z,22.84
2022-08-30T09:08:53.794Z,22.95
2022-08-30T09:11:26.378Z,22.65
2022-08-30T09:13:55.272Z,23.04
2022-08-30T09:16:51.100Z,23.09
2022-08-30T09:19:41.065Z,23.31
2022-08-30T09:22:26.296Z,23.33
2022-08-30T09:24:57.008Z,23.19
2022-08-30T09:27:28.419Z,23.23
2022-08-30T09:29:59.826Z,23.16
2022-08-30T09:32:30.414Z,23.64
2022-08-30T09:34:58.734Z,23.80
2022-08-30T09:37:30.807Z,23.75
2022-08-30T09:39:58.873Z,24.03
2022-08-30T09:42:29.150Z,23.67
2022-08-30T09:45:10.328Z,23.97
2022-08-30T09:47:40.211Z,24.05
2022-08-30T09:50:11.052Z,24.32
2022-08-30T09:53:01.963Z,24.35
2022-08-30T09:55:45.978Z,24.41
2022-08-30T09:58:24.752Z,24.37
2022-08-30T10:01:01.590Z,24.30
2022-08-30T10:03:40.334Z,24.59
2022-08-30T10:06:13.876Z,24.58
2022-08-30T10:08:53.216Z,24.89
2022-08-30T10:11:32.743Z,24.94
2022-08-30T10:14:13.121Z,24.64
2022-08-30T10:16:47.034Z,25.02
2022-08-30T10:19:31.025Z,25.07
2022-08-30T10:22:02.526Z,25.02
2022-08-30T10:24:34.128Z,25.11
2022-08-30T10:27:07.704Z,25.20
2022-08-30T10:29:42.270Z,25.29
2022-08-30T10:32:18.600Z,25.64
2022-08-30T10:34:51.269Z,25.56
2022-08-30T10:37:22.925Z,25.23
2022-08-30T10:42:42.352Z,25.53
2022-08-30T10:45:14.943Z,25.25
2022-08-30T10:47:46.202Z,25.71
2022-08-30T10:50:16.801Z,25.75
2022-08-30T10:52:51.529Z,25.86
2022-08-30T10:55:23.076Z,26.10
2022-08-30T10:57:51.515Z,26.08
2022-08-30T11:00:25.156Z,26.18
2022-08-30T11:03:37.118Z,26.30
2022-08-30T11:06:20.315Z,25.98
2022-08-30T11:09:04.674Z,26.13
2022-08-30T11:11:43.103Z,26.31
2022-08-30T11:14:12.877Z,26.49
2022-08-30T11:16:43.305Z,26.72
2022-08-30T11:19:18.937Z,26.35
2022-08-30T11:21:49.035Z,26.67
2022-08-30T11:24:21.090Z,27.00
2022-08-30T11:27:01.996Z,27.06
2022-08-30T11:29:36.007Z,27.10
2022-08-30T11:32:36.120Z,27.23
2022-08-30T11:35:06.118Z,27.26
2022-08-30T11:37:42.235Z,27.29
2022-08-30T11:40:15.556Z,27.16
2022-08-30T11:42:46.768Z,27.14
2022-08-30T11:45:52.366Z,27.26
2022-08-30T11:48:53.868Z,26.89
2022-08-30T11:51:57.993Z,27.40
2022-08-30T11:54:43.735Z,27.30
2022-08-30T11:57:19.732Z,27.37
2022-08-30T11:59:58.727Z,27.65
2022-08-30T12:02:46.521Z,27.67
2022-08-30T12:05:44.472Z,27.78
2022-08-30T12:08:47.236Z,27.88
2022-08-30T12:12:04.245Z,28.06
2022-08-30T12:14:41.463Z,28.23
2022-08-30T12:17:37.010Z,28.46
2022-08-30T12:20:06.996Z,28.30
2022-08-30T12:22:40.708Z,28.03
2022-08-30T12:25:18.246Z,28.21
2022-08-30T12:27:46.134Z,28.70
2022-08-30T12:30:15.296Z,28.75
2022-08-30T12:32:48.734Z,28.63
2022-08-30T12:35:22.006Z,28.61
2022-08-30T12:37:58.395Z,28.38
2022-08-30T12:40:26.985Z,28.07
2022-08-30T12:42:56.742Z,28.26
2022-08-30T12:45:27.440Z,28.29
2022-08-30T12:47:59.267Z,28.12
2022-08-30T12:50:30.096Z,28.44
2022-08-30T12:52:59.960Z,28.95
2022-08-30T12:55:30.679Z,29.04
2022-08-30T12:58:02.146Z,29.09
2022-08-30T13:00:32.341Z,28.98
2022-08-30T13:03:14.818Z,28.87
2022-08-30T13:05:48.020Z,28.98
2022-08-30T13:08:19.563Z,28.91
2022-08-30T13:10:57.209Z,28.56
2022-08-30T13:13:38.021Z,28.78
2022-08-30T13:16:22.008Z,29.01
2022-08-30T13:18:52.651Z,28.99
2022-08-30T13:21:27.559Z,28.90
2022-08-30T13:23:58.258Z,28.71
2022-08-30T13:26:28.013Z,28.74
2022-08-30T13:28:58.179Z,28.78
2022-08-30T13:31:27.285Z,28.76
2022-08-30T13:33:56.875Z,28.82
2022-08-30T13:36:27.394Z,28.65
2022-08-30T13:38:55.384Z,28.49
2022-08-30T13:41:23.242Z,28.63
2022-08-30T13:46:42.418Z,28.67
2022-08-30T13:52:19.896Z,28.56
2022-08-30T13:54:49.812Z,28.57
2022-08-30T13:57:53.356Z,28.28
2022-08-30T14:00:08.601Z,28.43
2022-08-30T14:02:42.877Z,28.59
2022-08-30T14:05:37.597Z,28.84
2022-08-30T14:08:01.944Z,29.05
2022-08-30T14:10:31.695Z,29.06
2022-08-30T14:13:07.908Z,28.96
2022-08-30T14:15:39.013Z,28.55
2022-08-30T14:18:07.530Z,28.96
2022-08-30T14:20:38.390Z,29.13
2022-08-30T14:23:07.488Z,29.25
2022-08-30T14:25:40.866Z,29.10
2022-08-30T14:28:09.767Z,29.13
2022-08-30T14:30:38.961Z,29.09
2022-08-30T14:33:07.101Z,29.13
2022-08-30T14:35:38.128Z,28.74
2022-08-30T14:38:06.766Z,28.66
2022-08-30T14:40:38.868Z,29.03
2022-08-30T14:43:06.802Z,28.79
2022-08-30T14:45:34.471Z,28.89
2022-08-30T14:48:06.224Z,29.05
2022-08-30T14:50:41.231Z,29.19
2022-08-30T14:53:09.070Z,28.86
2022-08-30T14:55:37.221Z,28.97
2022-08-30T14:58:06.871Z,28.83
2022-08-30T15:00:34.633Z,28.82
2022-08-30T15:03:03.491Z,28.48
2022-08-30T15:05:31.809Z,28.18
2022-08-30T15:08:01.765Z,28.35
2022-08-30T15:10:29.991Z,28.13
2022-08-30T15:12:57.670Z,28.10
2022-08-30T15:15:25.538Z,28.09
2022-08-30T15:17:53.349Z,27.97
2022-08-30T15:20:21.151Z,28.06
2022-08-30T15:22:48.815Z,28.12
2022-08-30T15:25:17.872Z,28.03
2022-08-30T15:27:45.660Z,27.88
2022-08-30T15:30:16.894Z,28.04
2022-08-30T15:32:47.722Z,28.03
2022-08-30T15:35:16.599Z,28.06
2022-08-30T15:37:44.422Z,27.92
2022-08-30T15:40:12.348Z,27.90
2022-08-30T15:42:42.330Z,27.77
2022-08-30T15:45:10.944Z,27.81
2022-08-30T15:47:38.899Z,27.83
2022-08-30T15:50:09.111Z,27.96
2022-08-30T15:52:36.902Z,28.01
2022-08-30T15:55:04.928Z,28.07
2022-08-30T15:57:33.644Z,27.87
2022-08-30T16:00:02.958Z,27.89
2022-08-30T16:02:34.198Z,28.02
2022-08-30T16:05:03.023Z,27.89
2022-08-30T16:07:30.723Z,27.77
2022-08-30T16:09:58.449Z,27.74
2022-08-30T16:12:26.091Z,27.73
2022-08-30T16:14:53.955Z,27.72
2022-08-30T16:17:23.987Z,27.83
2022-08-30T16:19:55.639Z,27.55
2022-08-30T16:22:26.537Z,27.55
2022-08-30T16:24:54.254Z,27.46
2022-08-30T16:27:26.281Z,27.37
2022-08-30T16:29:54.056Z,27.42
2022-08-30T16:32:23.057Z,27.40
2022-08-30T16:34:51.342Z,27.46
2022-08-30T16:37:19.027Z,27.40
2022-08-30T16:39:46.918Z,27.49
2022-08-30T16:42:20.842Z,27.41
2022-08-30T16:44:52.524Z,27.41
2022-08-30T16:47:20.260Z,27.35
2022-08-30T16:49:49.480Z,27.40
2022-08-30T16:52:18.464Z,27.31
2022-08-30T16:54:47.013Z,27.26
2022-08-30T16:57:19.952Z,26.99
2022-08-30T16:59:47.852Z,26.94
2022-08-30T17:02:18.808Z,26.96
2022-08-30T17:04:49.770Z,27.10
2022-08-30T17:07:21.591Z,27.01
2022-08-30T17:09:50.429Z,26.96
2022-08-30T17:12:18.180Z,27.06
2022-08-30T17:14:46.004Z,26.95
2022-08-30T17:17:15.246Z,26.85
2022-08-30T17:19:43.959Z,26.74
2022-08-30T17:22:12.476Z,26.74
2022-08-30T17:24:42.120Z,26.65
2022-08-30T17:27:11.446Z,26.54
2022-08-30T17:29:39.325Z,26.44
2022-08-30T17:32:07.448Z,26.48
2022-08-30T17:34:36.640Z,26.37
2022-08-30T17:37:04.628Z,26.38
2022-08-30T17:39:34.840Z,26.31
2022-08-30T17:42:05.496Z,26.06
2022-08-30T17:44:37.823Z,26.00
2022-08-30T17:47:09.953Z,26.01
2022-08-30T17:49:37.648Z,25.97
2022-08-30T17:52:05.846Z,25.90
2022-08-30T17:54:35.280Z,25.80
2022-08-30T17:57:10.779Z,25.68
2022-08-30T17:59:40.363Z,25.67
2022-08-30T18:02:11.048Z,25.57
2022-08-30T18:04:39.346Z,25.50
2022-08-30T18:07:12.240Z,25.47
2022-08-30T18:09:40.354Z,25.49
2022-08-30T18:12:08.502Z,25.41
2022-08-30T18:14:36.127Z,25.35
2022-08-30T18:17:08.716Z,25.33
2022-08-30T18:19:36.827Z,25.28
2022-08-30T18:22:14.184Z,25.15
2022-08-30T18:24:41.864Z,25.08
2022-08-30T18:27:09.644Z,24.97
2022-08-30T18:29:38.679Z,24.94
2022-08-30T18:32:09.124Z,24.84
2022-08-30T18:34:37.112Z,24.70
2022-08-30T18:37:05.755Z,24.73
2022-08-30T18:39:39.768Z,24.59
2022-08-30T18:42:08.986Z,24.52
2022-08-30T18:44:37.809Z,24.64
2022-08-30T18:47:06.218Z,24.34
2022-08-30T18:49:39.565Z,24.21
2022-08-30T18:52:09.877Z,24.18
2022-08-30T18:54:39.137Z,24.11
2022-08-30T18:57:07.958Z,24.10
2022-08-30T18:59:37.727Z,24.10
2022-08-30T19:02:06.126Z,23.95
2022-08-30T19:04:36.155Z,23.97
2022-08-30T19:07:05.158Z,23.88
2022-08-30T19:09:33.165Z,23.78
2022-08-30T19:12:03.049Z,23.82
2022-08-30T19:14:31.046Z,23.88
2022-08-30T19:17:02.091Z,23.77
2022-08-30T19:19:32.572Z,23.69
2022-08-30T19:22:04.342Z,23.61
2022-08-30T19:24:32.421Z,23.53
2022-08-30T19:27:00.241Z,23.53
2022-08-30T19:29:28.069Z,23.47
2022-08-30T19:31:56.070Z,23.43
2022-08-30T19:34:23.737Z,23.46
2022-08-30T19:36:52.150Z,23.34
2022-08-30T19:39:22.031Z,23.19
2022-08-30T19:41:49.786Z,23.18
2022-08-30T19:44:17.547Z,23.25
2022-08-30T19:46:45.591Z,23.16
2022-08-30T19:49:13.580Z,23.13
2022-08-30T19:51:46.502Z,23.05
2022-08-30T19:54:14.887Z,22.97
2022-08-30T19:56:44.019Z,22.98
2022-08-30T19:59:11.777Z,23.01
2022-08-30T20:01:39.795Z,22.86
2022-08-30T20:04:07.588Z,22.96
2022-08-30T20:06:35.750Z,22.86
2022-08-30T20:09:03.939Z,22.76
2022-08-30T20:11:31.757Z,22.79
2022-08-30T20:14:01.084Z,22.68
2022-08-30T20:16:37.125Z,22.63
2022-08-30T20:19:06.228Z,22.71
2022-08-30T20:21:34.236Z,22.61
2022-08-30T20:24:03.919Z,22.68
2022-08-30T20:26:34.371Z,22.64
2022-08-30T20:29:04.231Z,22.54
2022-08-30T20:31:32.046Z,22.58
2022-08-30T20:33:59.834Z,22.50
2022-08-30T20:36:27.480Z,22.51
2022-08-30T20:38:55.105Z,22.46
2022-08-30T20:41:24.050Z,22.46
2022-08-30T20:43:53.144Z,22.29
2022-08-30T20:46:23.386Z,22.36
2022-08-30T20:48:51.534Z,22.21
2022-08-30T20:51:21.172Z,22.14
2022-08-30T20:53:50.316Z,22.10
2022-08-30T20:56:21.910Z,22.05
2022-08-30T20:58:51.249Z,22.10
2022-08-30T21:01:20.066Z,22.12
2022-08-30T21:03:51.494Z,22.10
2022-08-30T21:06:21.740Z,21.95
2022-08-30T21:08:49.693Z,21.91
2022-08-30T21:11:18.392Z,22.02
2022-08-30T21:13:48.439Z,21.86
2022-08-30T21:16:21.948Z,21.77
2022-08-30T21:18:52.006Z,21.80
2022-08-30T21:21:21.435Z,21.74
2022-08-30T21:23:49.793Z,21.77
2022-08-30T21:26:18.792Z,21.74
2022-08-30T21:28:47.710Z,21.67
2022-08-30T21:31:17.588Z,21.69
2022-08-30T21:33:45.964Z,21.67
2022-08-30T21:36:32.986Z,21.47
2022-08-30T21:39:01.133Z,21.61
2022-08-30T21:41:29.488Z,21.55
2022-08-30T21:43:58.329Z,21.62
2022-08-30T21:46:27.154Z,21.48
2022-08-30T21:48:55.158Z,21.48
2022-08-30T21:51:24.694Z,21.42
2022-08-30T21:53:52.606Z,21.46
2022-08-30T21:56:22.097Z,21.45
2022-08-30T21:58:50.618Z,21.26
2022-08-30T22:01:21.171Z,21.39
2022-08-30T22:03:49.060Z,21.30
2022-08-30T22:06:17.220Z,21.28
2022-08-30T22:08:50.025Z,21.19
2022-08-30T22:11:20.127Z,21.29
2022-08-30T22:13:49.675Z,21.37
2022-08-30T22:16:19.067Z,21.23
2022-08-30T22:18:47.293Z,21.22
2022-08-30T22:21:19.746Z,21.23
2022-08-30T22:23:48.865Z,21.19
2022-08-30T22:26:18.779Z,21.15
2022-08-30T22:28:46.728Z,21.05
2022-08-30T22:31:16.085Z,21.10
2022-08-30T22:33:44.551Z,21.11
2022-08-30T22:36:14.730Z,21.01
2022-08-30T22:38:42.640Z,21.10
2022-08-30T22:41:13.863Z,21.09
2022-08-30T22:43:41.873Z,21.03
2022-08-30T22:46:11.341Z,20.94
2022-08-30T22:48:41.446Z,21.03
2022-08-30T22:51:10.125Z,21.00
2022-08-30T22:53:38.101Z,20.96
2022-08-30T22:56:11.590Z,20.93
2022-08-30T22:58:39.341Z,20.80
2022-08-30T23:01:08.010Z,20.84
2022-08-30T23:03:36.842Z,20.90
2022-08-30T23:06:04.766Z,20.81
2022-08-30T23:08:32.534Z,20.80
2022-08-30T23:11:00.373Z,20.68
2022-08-30T23:13:29.414Z,20.68
2022-08-30T23:15:57.178Z,20.82
2022-08-30T23:18:24.939Z,20.75
2022-08-30T23:20:52.609Z,20.74
2022-08-30T23:23:37.689Z,20.73
2022-08-30T23:26:23.163Z,20.64
2022-08-30T23:29:09.757Z,20.72
2022-08-30T23:31:55.143Z,20.79
2022-08-30T23:34:40.185Z,20.73
2022-08-30T23:37:25.835Z,20.75
2022-08-30T23:40:11.404Z,20.74
2022-08-30T23:42:56.885Z,20.66
2022-08-30T23:45:43.611Z,20.61
2022-08-30T23:48:29.474Z,20.45
2022-08-30T23:51:22.009Z,20.52
2022-08-30T23:54:08.005Z,20.46
2022-08-30T23:56:53.675Z,20.43
2022-08-30T23:59:38.661Z,20.41
